الصفحة الرئيسية
METAR-TAF:

METAR-TAF

مطار :

مطار وهران الدولي أحمد بن بلة

وهران, الجزائر

دائرة عرض: 35-38N, خط طول: 000-36W, ارتفاع: 90 متر

مراقبة الطقس الحالي

تاريخ ووقت الإصدار 22 دقيقة قبل الساعة 15:30UTC
ريح 8 عقدة من الشمال الغربي
درجة الحرارة 19°درجة مئوية
الرطوبة 52%
ضغط 1019 hPa
الرؤية 10 كم أو أكثر
غيوم مفككة على ارتفاع 2300 قدم
غيوم متفرقة على ارتفاع 23300 قدم

METAR: DAOO 241530Z 32008KT 9999 BKN023 SCT233 19/09 Q1019

زمن: 16:52 (15:52 UTC)

توقعات

تاريخ ووقت الإصدار 4ساعات و 52 دقيقة قبل الساعة 11:00UTC
التوقعات صالحة من24 الساعة 12 UTC إلى 25 الساعة 12 UTC
ريح 2 عقدةمن اتجاهات متغيرة
الرؤية 10 كم أو أكثر
غيوم مفككة على ارتفاع 2300 قدم
أصبح
من 24 الساعة 13 UTC إلى 24 الساعة 15 UTC
ريح 12 عقدة من الشمال الشرقي
أصبح
من 25 الساعة 00 UTC إلى 25 الساعة 03 UTC
ريح 2 عقدةمن اتجاهات متغيرة
نظرية الاحتمالات 30% :
مؤقت
من 25 الساعة 03 UTC إلى 25 الساعة 08 UTC
الرؤية: 4000 متر
غيوم متفرقة على ارتفاع 1000 قدم
غشاء

TAF: DAOO 241100Z 2412/2512 VRB02KT 9999 BKN023 BECMG 2413/2415 05012KT BECMG 2500/2503 VRB02KT PROB30 TEMPO 2503/2508 4000 BR SCT010

أرصاد الطقس والتوقعات من أكثر من 4000 مطار (تقارير الطقس للمطار METAR والتنبؤ بالطقس بالمطارTAF).

المحطات المتاحة هي النقط الصفراء والحمراء على الخريطة.

حرك المؤشر فوق النقطة لمعرفة اسم المحطة.

ثم انقر لمعرفة أرصاد وتوقعات الطقس.

لتغيير الخارطة: اضغط على الأزرار الخضراء مع رمز الصليب الأسود للتكبير. على الزر الأخضر مع شرطة للتصغير، أو على الأسهم الخضراء للخرائط المجاورة.


METAR-TAF: